SPQ847 VVTS-VVPQ
Flight info
| Callsign | SPQ847 |
|---|---|
| Flight time | N/A |
| Altitude | 26000 |
| Route | BACHU5A BACHU W17 TUNPO TUNPO1D |
| Aircraft | A321/M-SDE3FGHIRWY/LB1 |
Departure
| Time | N/A |
|---|---|
| Airport | Tan Son Nhat International Airport (VVTS) |
Arrival
| Time | 2026-04-18 07:21 |
|---|---|
| Airport | Phú Quốc International Airport (VVPQ) |
| Time | Latitude | Longitude | Altitude | Speed | Heading |
|---|---|---|---|---|---|
| 2026-04-18 07:00 | 10.13444 | 104.78450 | 24323 ft | 437 kts | 250° |
| 2026-04-18 07:01 | 10.12371 | 104.75550 | 24101 ft | 436 kts | 250° |
| 2026-04-18 07:01 | 10.11308 | 104.72672 | 23877 ft | 435 kts | 250° |
| 2026-04-18 07:01 | 10.10250 | 104.69803 | 23662 ft | 434 kts | 250° |
| 2026-04-18 07:01 | 10.09192 | 104.66939 | 23450 ft | 433 kts | 250° |
| 2026-04-18 07:02 | 10.08134 | 104.64086 | 23203 ft | 431 kts | 250° |
| 2026-04-18 07:02 | 10.07275 | 104.61180 | 22945 ft | 429 kts | 259° |
| 2026-04-18 07:02 | 10.06884 | 104.58186 | 22688 ft | 427 kts | 268° |
| 2026-04-18 07:02 | 10.06972 | 104.55181 | 22434 ft | 425 kts | 277° |
| 2026-04-18 07:03 | 10.07474 | 104.52270 | 22185 ft | 424 kts | 281° |
| 2026-04-18 07:03 | 10.08042 | 104.49341 | 21942 ft | 423 kts | 281° |
| 2026-04-18 07:03 | 10.08596 | 104.46414 | 21692 ft | 421 kts | 281° |
| 2026-04-18 07:03 | 10.09140 | 104.43494 | 21439 ft | 420 kts | 281° |
| 2026-04-18 07:04 | 10.09680 | 104.40580 | 21198 ft | 419 kts | 281° |
| 2026-04-18 07:04 | 10.10219 | 104.37676 | 20961 ft | 418 kts | 281° |
| 2026-04-18 07:04 | 10.10756 | 104.34780 | 20723 ft | 416 kts | 281° |
| 2026-04-18 07:04 | 10.11208 | 104.31884 | 20483 ft | 415 kts | 275° |
| 2026-04-18 07:05 | 10.11176 | 104.28965 | 20248 ft | 414 kts | 264° |
| 2026-04-18 07:05 | 10.10623 | 104.26104 | 20017 ft | 414 kts | 254° |
| 2026-04-18 07:05 | 10.09688 | 104.23339 | 19785 ft | 414 kts | 251° |
| 2026-04-18 07:05 | 10.08737 | 104.20588 | 19555 ft | 412 kts | 251° |
| 2026-04-18 07:06 | 10.07806 | 104.17855 | 19285 ft | 405 kts | 252° |
| 2026-04-18 07:06 | 10.06909 | 104.15202 | 18837 ft | 400 kts | 251° |
| 2026-04-18 07:06 | 10.06015 | 104.12545 | 18372 ft | 396 kts | 251° |
| 2026-04-18 07:06 | 10.05127 | 104.09914 | 17878 ft | 393 kts | 252° |
| 2026-04-18 07:07 | 10.04242 | 104.07306 | 17403 ft | 388 kts | 251° |
| 2026-04-18 07:07 | 10.03368 | 104.04734 | 16955 ft | 384 kts | 251° |
| 2026-04-18 07:07 | 10.02502 | 104.02187 | 16482 ft | 380 kts | 251° |
| 2026-04-18 07:07 | 10.01637 | 103.99655 | 16023 ft | 378 kts | 251° |
| 2026-04-18 07:08 | 10.00777 | 103.97144 | 15552 ft | 375 kts | 251° |
| 2026-04-18 07:08 | 9.99923 | 103.94646 | 15074 ft | 374 kts | 250° |
| 2026-04-18 07:08 | 9.99077 | 103.92159 | 14595 ft | 372 kts | 250° |
| 2026-04-18 07:08 | 9.98230 | 103.89678 | 14106 ft | 371 kts | 250° |
| 2026-04-18 07:09 | 9.97397 | 103.87233 | 13615 ft | 371 kts | 250° |
| 2026-04-18 07:09 | 9.96556 | 103.84767 | 13072 ft | 370 kts | 250° |
| 2026-04-18 07:09 | 9.95587 | 103.82378 | 12773 ft | 360 kts | 237° |
| 2026-04-18 07:09 | 9.93891 | 103.80618 | 12649 ft | 343 kts | 209° |
| 2026-04-18 07:10 | 9.91706 | 103.79888 | 12522 ft | 325 kts | 180° |
| 2026-04-18 07:10 | 9.89560 | 103.80286 | 12326 ft | 311 kts | 152° |
| 2026-04-18 07:10 | 9.87948 | 103.81661 | 11980 ft | 302 kts | 121° |
| 2026-04-18 07:10 | 9.87280 | 103.83633 | 11590 ft | 298 kts | 91° |
| 2026-04-18 07:11 | 9.87731 | 103.85645 | 11179 ft | 296 kts | 60° |
| 2026-04-18 07:11 | 9.88893 | 103.87364 | 10769 ft | 296 kts | 55° |
| 2026-04-18 07:11 | 9.90095 | 103.89054 | 10413 ft | 294 kts | 55° |
| 2026-04-18 07:11 | 9.91290 | 103.90729 | 10105 ft | 291 kts | 54° |
| 2026-04-18 07:12 | 9.92464 | 103.92374 | 9979 ft | 285 kts | 54° |
| 2026-04-18 07:12 | 9.93628 | 103.94003 | 9878 ft | 285 kts | 54° |
| 2026-04-18 07:12 | 9.94797 | 103.95637 | 9513 ft | 289 kts | 54° |
| 2026-04-18 07:12 | 9.95956 | 103.97257 | 9166 ft | 285 kts | 54° |
| 2026-04-18 07:13 | 9.97126 | 103.98893 | 8707 ft | 286 kts | 54° |
| 2026-04-18 07:13 | 9.98288 | 104.00516 | 8328 ft | 284 kts | 54° |
| 2026-04-18 07:13 | 9.99442 | 104.02129 | 7977 ft | 279 kts | 54° |
| 2026-04-18 07:13 | 10.00398 | 104.03809 | 7431 ft | 273 kts | 72° |
| 2026-04-18 07:14 | 10.00890 | 104.05675 | 6986 ft | 273 kts | 76° |
| 2026-04-18 07:14 | 10.01343 | 104.07535 | 6520 ft | 271 kts | 76° |
| 2026-04-18 07:14 | 10.01787 | 104.09394 | 6060 ft | 270 kts | 76° |
| 2026-04-18 07:14 | 10.02231 | 104.11247 | 5603 ft | 270 kts | 76° |
| 2026-04-18 07:15 | 10.02679 | 104.13087 | 5150 ft | 267 kts | 75° |
| 2026-04-18 07:15 | 10.03431 | 104.14782 | 4707 ft | 265 kts | 54° |
| 2026-04-18 07:15 | 10.04765 | 104.16079 | 4248 ft | 267 kts | 32° |
| 2026-04-18 07:15 | 10.06487 | 104.16775 | 3773 ft | 267 kts | 9° |
| 2026-04-18 07:16 | 10.08262 | 104.16939 | 3657 ft | 246 kts | 6° |
| 2026-04-18 07:16 | 10.09895 | 104.17090 | 3621 ft | 227 kts | 6° |
| 2026-04-18 07:16 | 10.11455 | 104.17185 | 3403 ft | 222 kts | 357° |
| 2026-04-18 07:16 | 10.12926 | 104.16834 | 3009 ft | 211 kts | 336° |
| 2026-04-18 07:17 | 10.14090 | 104.16085 | 2815 ft | 192 kts | 317° |
| 2026-04-18 07:17 | 10.14932 | 104.15088 | 2673 ft | 180 kts | 301° |
| 2026-04-18 07:17 | 10.15444 | 104.13960 | 2474 ft | 173 kts | 285° |
| 2026-04-18 07:17 | 10.15645 | 104.12773 | 2279 ft | 170 kts | 274° |
| 2026-04-18 07:18 | 10.15764 | 104.11582 | 2056 ft | 169 kts | 273° |
| 2026-04-18 07:18 | 10.15883 | 104.10402 | 1852 ft | 167 kts | 270° |
| 2026-04-18 07:18 | 10.15998 | 104.09256 | 1631 ft | 160 kts | 270° |
| 2026-04-18 07:18 | 10.16108 | 104.08149 | 1436 ft | 154 kts | 270° |
| 2026-04-18 07:19 | 10.16215 | 104.07075 | 1238 ft | 152 kts | 270° |
| 2026-04-18 07:19 | 10.16321 | 104.05999 | 1052 ft | 154 kts | 271° |
| 2026-04-18 07:19 | 10.16427 | 104.04927 | 878 ft | 151 kts | 271° |
| 2026-04-18 07:19 | 10.16533 | 104.03860 | 687 ft | 152 kts | 273° |
| 2026-04-18 07:20 | 10.16638 | 104.02804 | 484 ft | 148 kts | 272° |
| 2026-04-18 07:20 | 10.16742 | 104.01756 | 294 ft | 150 kts | 272° |
| 2026-04-18 07:20 | 10.16844 | 104.00727 | 94 ft | 147 kts | 271° |
| 2026-04-18 07:20 | 10.16936 | 103.99751 | 28 ft | 123 kts | 276° |
| 2026-04-18 07:21 | 10.16990 | 103.99223 | 28 ft | 41 kts | 275° |
| 2026-04-18 07:21 | 10.17015 | 103.98936 | 26 ft | 42 kts | 275° |
| 2026-04-18 07:21 | 10.17009 | 103.98664 | 25 ft | 31 kts | 250° |
| 2026-04-18 07:21 | 10.16921 | 103.98539 | 22 ft | 16 kts | 171° |
| 2026-04-18 07:22 | 10.16876 | 103.98647 | 23 ft | 20 kts | 96° |
| 2026-04-18 07:22 | 10.16860 | 103.98809 | 23 ft | 26 kts | 96° |
| 2026-04-18 07:22 | 10.16839 | 103.99011 | 24 ft | 32 kts | 96° |
| 2026-04-18 07:22 | 10.16811 | 103.99256 | 25 ft | 38 kts | 96° |
| 2026-04-18 07:23 | 10.16796 | 103.99461 | 26 ft | 27 kts | 95° |
| 2026-04-18 07:23 | 10.16736 | 103.99552 | 29 ft | 17 kts | 177° |
| 2026-04-18 07:23 | 10.16590 | 103.99538 | 26 ft | 17 kts | 184° |
| 2026-04-18 07:23 | 10.16535 | 103.99609 | 26 ft | 13 kts | 97° |
| 2026-04-18 07:24 | 10.16499 | 103.99638 | 26 ft | 6 kts | 181° |
| 2026-04-18 07:24 | 10.16470 | 103.99637 | 26 ft | 1 kts | 183° |
| 2026-04-18 07:24 | 10.16456 | 103.99636 | 26 ft | 2 kts | 184° |
| 2026-04-18 07:24 | 10.16443 | 103.99635 | 26 ft | 0 kts | 185° |